MSP weather

Minneapolis-St Paul International/Wold-Chamberlain Airport
Minneapolis, Minnesota, United States

Public forecast

Using degrees Fahrenheit for public forecast. Weather courtesy of forecast.io.

METAR (pilot weather report)

Retrieved 2017/03/29 08:53 UTC (14 minutes ago):

KMSP 290853Z 00000KT 10SM OVC170 06/01 A3019

TAF (pilot weather forecast)

Retrieved 2017/03/29 06:06 UTC (3 hours ago):

TAF COR KMSP 290604Z 2906/3012 VRB04KT P6SM BKN250 FM291500 11007KT P6SM SCT120 BKN200 FM300000 10006KT P6SM SCT020 OVC040 PROB30 3000/3004 6SM -RA BR BKN030 FM300400 09005KT P6SM SCT012 BKN020 PROB30 3004/3008 6SM -RA BR BKN012